sensor_id;sensor_type;location;lat;lon;timestamp;temperature;humidity
64638;HTU21D;51049;45.046;38.950;2023-03-01T00:01:15;4.63;62.78
64638;HTU21D;51049;45.046;38.950;2023-03-01T00:03:49;4.64;62.79
64638;HTU21D;51049;45.046;38.950;2023-03-01T00:06:16;4.65;62.80
64638;HTU21D;51049;45.046;38.950;2023-03-01T00:08:42;4.64;62.81
64638;HTU21D;51049;45.046;38.950;2023-03-01T00:11:15;4.64;62.84
64638;HTU21D;51049;45.046;38.950;2023-03-01T00:13:43;4.64;62.82
64638;HTU21D;51049;45.046;38.950;2023-03-01T00:16:25;4.64;62.87
64638;HTU21D;51049;45.046;38.950;2023-03-01T00:18:53;4.65;62.85
64638;HTU21D;51049;45.046;38.950;2023-03-01T00:21:20;4.64;62.86
64638;HTU21D;51049;45.046;38.950;2023-03-01T00:23:48;4.62;62.89
64638;HTU21D;51049;45.046;38.950;2023-03-01T00:26:15;4.65;62.88
64638;HTU21D;51049;45.046;38.950;2023-03-01T00:28:42;4.66;62.87
64638;HTU21D;51049;45.046;38.950;2023-03-01T00:31:14;4.66;62.83
64638;HTU21D;51049;45.046;38.950;2023-03-01T00:33:40;4.65;62.85
64638;HTU21D;51049;45.046;38.950;2023-03-01T00:36:07;4.63;62.85
64638;HTU21D;51049;45.046;38.950;2023-03-01T00:38:37;4.61;62.87
64638;HTU21D;51049;45.046;38.950;2023-03-01T00:41:08;4.59;62.89
64638;HTU21D;51049;45.046;38.950;2023-03-01T00:43:38;4.57;62.93
64638;HTU21D;51049;45.046;38.950;2023-03-01T00:46:10;4.56;62.95
64638;HTU21D;51049;45.046;38.950;2023-03-01T00:48:36;4.58;62.92
64638;HTU21D;51049;45.046;38.950;2023-03-01T00:53:42;4.57;62.93
64638;HTU21D;51049;45.046;38.950;2023-03-01T00:56:09;4.57;62.94
64638;HTU21D;51049;45.046;38.950;2023-03-01T00:58:36;4.54;62.97
64638;HTU21D;51049;45.046;38.950;2023-03-01T01:01:29;4.56;63.02
64638;HTU21D;51049;45.046;38.950;2023-03-01T01:03:59;4.58;62.94
64638;HTU21D;51049;45.046;38.950;2023-03-01T01:06:33;4.59;62.91
64638;HTU21D;51049;45.046;38.950;2023-03-01T01:09:00;4.60;62.88
64638;HTU21D;51049;45.046;38.950;2023-03-01T01:11:32;4.60;62.87
64638;HTU21D;51049;45.046;38.950;2023-03-01T01:14:02;4.59;62.89
64638;HTU21D;51049;45.046;38.950;2023-03-01T01:16:29;4.59;62.91
64638;HTU21D;51049;45.046;38.950;2023-03-01T01:18:56;4.57;63.02
64638;HTU21D;51049;45.046;38.950;2023-03-01T01:21:24;4.57;63.04
64638;HTU21D;51049;45.046;38.950;2023-03-01T01:23:51;4.52;63.12
64638;HTU21D;51049;45.046;38.950;2023-03-01T01:26:24;4.50;63.20
64638;HTU21D;51049;45.046;38.950;2023-03-01T01:28:53;4.50;63.24
64638;HTU21D;51049;45.046;38.950;2023-03-01T01:31:22;4.49;63.24
64638;HTU21D;51049;45.046;38.950;2023-03-01T01:33:54;4.52;63.22
64638;HTU21D;51049;45.046;38.950;2023-03-01T01:36:21;4.52;63.16
64638;HTU21D;51049;45.046;38.950;2023-03-01T01:38:50;4.52;63.12
64638;HTU21D;51049;45.046;38.950;2023-03-01T01:41:18;4.51;63.13
64638;HTU21D;51049;45.046;38.950;2023-03-01T01:43:46;4.51;63.15
64638;HTU21D;51049;45.046;38.950;2023-03-01T01:46:25;4.51;63.16
64638;HTU21D;51049;45.046;38.950;2023-03-01T01:48:59;4.51;63.16
64638;HTU21D;51049;45.046;38.950;2023-03-01T01:51:33;4.50;63.16
64638;HTU21D;51049;45.046;38.950;2023-03-01T01:54:15;4.50;63.15
64638;HTU21D;51049;45.046;38.950;2023-03-01T01:56:46;4.49;63.19
64638;HTU21D;51049;45.046;38.950;2023-03-01T01:59:13;4.45;63.28
64638;HTU21D;51049;45.046;38.950;2023-03-01T02:01:40;4.43;63.19
64638;HTU21D;51049;45.046;38.950;2023-03-01T02:04:06;4.41;63.20
64638;HTU21D;51049;45.046;38.950;2023-03-01T02:06:44;4.39;63.21
64638;HTU21D;51049;45.046;38.950;2023-03-01T02:09:43;4.39;63.24
64638;HTU21D;51049;45.046;38.950;2023-03-01T02:12:11;4.36;63.21
64638;HTU21D;51049;45.046;38.950;2023-03-01T02:14:39;4.35;63.22
64638;HTU21D;51049;45.046;38.950;2023-03-01T02:17:05;4.35;63.24
64638;HTU21D;51049;45.046;38.950;2023-03-01T02:22:27;4.35;63.23
64638;HTU21D;51049;45.046;38.950;2023-03-01T02:30:13;4.29;63.21
64638;HTU21D;51049;45.046;38.950;2023-03-01T02:32:40;4.24;63.24
64638;HTU21D;51049;45.046;38.950;2023-03-01T02:35:13;4.18;63.29
64638;HTU21D;51049;45.046;38.950;2023-03-01T02:37:49;4.13;63.34
64638;HTU21D;51049;45.046;38.950;2023-03-01T02:40:18;4.06;63.42
64638;HTU21D;51049;45.046;38.950;2023-03-01T02:42:53;4.01;63.47
64638;HTU21D;51049;45.046;38.950;2023-03-01T02:45:20;3.97;63.50
64638;HTU21D;51049;45.046;38.950;2023-03-01T02:47:50;3.92;63.54
64638;HTU21D;51049;45.046;38.950;2023-03-01T02:53:13;3.85;63.69
64638;HTU21D;51049;45.046;38.950;2023-03-01T02:55:41;3.83;63.67
64638;HTU21D;51049;45.046;38.950;2023-03-01T02:58:10;3.79;63.72
64638;HTU21D;51049;45.046;38.950;2023-03-01T03:00:43;3.78;63.75
64638;HTU21D;51049;45.046;38.950;2023-03-01T03:03:16;3.77;63.71
64638;HTU21D;51049;45.046;38.950;2023-03-01T03:05:42;3.74;63.69
64638;HTU21D;51049;45.046;38.950;2023-03-01T03:08:09;3.73;63.69
64638;HTU21D;51049;45.046;38.950;2023-03-01T03:10:38;3.74;63.73
64638;HTU21D;51049;45.046;38.950;2023-03-01T03:13:14;3.72;63.73
64638;HTU21D;51049;45.046;38.950;2023-03-01T03:15:43;3.71;63.70
64638;HTU21D;51049;45.046;38.950;2023-03-01T03:18:12;3.69;63.70
64638;HTU21D;51049;45.046;38.950;2023-03-01T03:20:40;3.67;63.70
64638;HTU21D;51049;45.046;38.950;2023-03-01T03:23:06;3.64;63.73
64638;HTU21D;51049;45.046;38.950;2023-03-01T03:25:35;3.63;63.74
64638;HTU21D;51049;45.046;38.950;2023-03-01T03:28:04;3.61;63.76
64638;HTU21D;51049;45.046;38.950;2023-03-01T03:30:37;3.59;63.74
64638;HTU21D;51049;45.046;38.950;2023-03-01T03:33:06;3.59;63.73
64638;HTU21D;51049;45.046;38.950;2023-03-01T03:35:43;3.56;63.74
64638;HTU21D;51049;45.046;38.950;2023-03-01T03:38:11;3.56;63.76
64638;HTU21D;51049;45.046;38.950;2023-03-01T03:40:49;3.57;63.78
64638;HTU21D;51049;45.046;38.950;2023-03-01T03:43:22;3.57;63.84
64638;HTU21D;51049;45.046;38.950;2023-03-01T03:45:49;3.57;63.90
64638;HTU21D;51049;45.046;38.950;2023-03-01T03:48:18;3.57;63.95
64638;HTU21D;51049;45.046;38.950;2023-03-01T03:50:49;3.57;63.97
64638;HTU21D;51049;45.046;38.950;2023-03-01T03:53:21;3.55;63.95
64638;HTU21D;51049;45.046;38.950;2023-03-01T03:55:51;3.54;64.01
64638;HTU21D;51049;45.046;38.950;2023-03-01T03:58:19;3.53;64.05
64638;HTU21D;51049;45.046;38.950;2023-03-01T04:00:48;3.50;64.04
64638;HTU21D;51049;45.046;38.950;2023-03-01T04:03:15;3.50;64.07
64638;HTU21D;51049;45.046;38.950;2023-03-01T04:05:41;3.50;64.11
64638;HTU21D;51049;45.046;38.950;2023-03-01T04:08:08;3.50;64.13
64638;HTU21D;51049;45.046;38.950;2023-03-01T04:10:41;3.50;64.14
64638;HTU21D;51049;45.046;38.950;2023-03-01T04:13:10;3.50;64.15
64638;HTU21D;51049;45.046;38.950;2023-03-01T04:15:39;3.49;64.18
64638;HTU21D;51049;45.046;38.950;2023-03-01T04:18:06;3.48;64.18
64638;HTU21D;51049;45.046;38.950;2023-03-01T04:20:34;3.47;64.17
64638;HTU21D;51049;45.046;38.950;2023-03-01T04:23:06;3.46;64.23
64638;HTU21D;51049;45.046;38.950;2023-03-01T04:25:51;3.44;64.26
64638;HTU21D;51049;45.046;38.950;2023-03-01T04:28:29;3.43;64.26
64638;HTU21D;51049;45.046;38.950;2023-03-01T04:30:57;3.44;64.23
64638;HTU21D;51049;45.046;38.950;2023-03-01T04:33:24;3.42;64.21
64638;HTU21D;51049;45.046;38.950;2023-03-01T04:35:51;3.43;64.23
64638;HTU21D;51049;45.046;38.950;2023-03-01T04:38:18;3.44;64.23
64638;HTU21D;51049;45.046;38.950;2023-03-01T04:40:44;3.42;64.23
64638;HTU21D;51049;45.046;38.950;2023-03-01T04:43:12;3.43;64.23
64638;HTU21D;51049;45.046;38.950;2023-03-01T04:45:44;3.43;64.24
64638;HTU21D;51049;45.046;38.950;2023-03-01T04:48:20;3.47;64.27
64638;HTU21D;51049;45.046;38.950;2023-03-01T04:51:13;3.47;64.19
64638;HTU21D;51049;45.046;38.950;2023-03-01T04:53:40;3.49;64.21
64638;HTU21D;51049;45.046;38.950;2023-03-01T04:56:09;3.52;64.22
64638;HTU21D;51049;45.046;38.950;2023-03-01T04:58:36;3.49;64.34
64638;HTU21D;51049;45.046;38.950;2023-03-01T05:03:54;3.54;64.48
64638;HTU21D;51049;45.046;38.950;2023-03-01T05:06:20;3.57;64.46
64638;HTU21D;51049;45.046;38.950;2023-03-01T05:08:56;3.60;64.43
64638;HTU21D;51049;45.046;38.950;2023-03-01T05:11:22;3.63;64.43
64638;HTU21D;51049;45.046;38.950;2023-03-01T05:13:48;3.65;64.44
64638;HTU21D;51049;45.046;38.950;2023-03-01T05:16:18;3.68;64.54
64638;HTU21D;51049;45.046;38.950;2023-03-01T05:18:45;3.67;64.69
64638;HTU21D;51049;45.046;38.950;2023-03-01T05:21:13;3.69;64.76
64638;HTU21D;51049;45.046;38.950;2023-03-01T05:23:42;3.71;64.72
64638;HTU21D;51049;45.046;38.950;2023-03-01T05:26:20;3.73;64.77
64638;HTU21D;51049;45.046;38.950;2023-03-01T05:28:49;3.77;64.73
64638;HTU21D;51049;45.046;38.950;2023-03-01T05:34:30;3.83;64.72
64638;HTU21D;51049;45.046;38.950;2023-03-01T05:36:59;3.87;64.72
64638;HTU21D;51049;45.046;38.950;2023-03-01T05:39:38;3.88;64.79
64638;HTU21D;51049;45.046;38.950;2023-03-01T05:42:27;3.91;64.82
64638;HTU21D;51049;45.046;38.950;2023-03-01T05:45:32;3.95;64.75
64638;HTU21D;51049;45.046;38.950;2023-03-01T05:47:59;3.98;64.73
64638;HTU21D;51049;45.046;38.950;2023-03-01T05:50:37;4.02;64.70
64638;HTU21D;51049;45.046;38.950;2023-03-01T05:55:38;4.05;64.68
64638;HTU21D;51049;45.046;38.950;2023-03-01T06:05:27;4.14;64.65
64638;HTU21D;51049;45.046;38.950;2023-03-01T06:08:22;4.18;64.63
64638;HTU21D;51049;45.046;38.950;2023-03-01T06:11:37;4.21;64.53
64638;HTU21D;51049;45.046;38.950;2023-03-01T06:14:09;4.26;64.56
64638;HTU21D;51049;45.046;38.950;2023-03-01T06:17:15;4.31;64.54
64638;HTU21D;51049;45.046;38.950;2023-03-01T06:20:06;4.39;64.51
64638;HTU21D;51049;45.046;38.950;2023-03-01T06:23:14;4.48;64.47
64638;HTU21D;51049;45.046;38.950;2023-03-01T06:25:41;4.52;64.41
64638;HTU21D;51049;45.046;38.950;2023-03-01T06:28:17;4.52;64.41
64638;HTU21D;51049;45.046;38.950;2023-03-01T06:30:45;4.57;64.43
64638;HTU21D;51049;45.046;38.950;2023-03-01T06:33:12;4.60;64.47
64638;HTU21D;51049;45.046;38.950;2023-03-01T06:36:04;4.66;64.48
64638;HTU21D;51049;45.046;38.950;2023-03-01T06:39:14;4.72;64.50
64638;HTU21D;51049;45.046;38.950;2023-03-01T06:46:15;4.89;64.37
64638;HTU21D;51049;45.046;38.950;2023-03-01T06:49:25;4.91;64.43
64638;HTU21D;51049;45.046;38.950;2023-03-01T06:52:31;4.90;64.40
64638;HTU21D;51049;45.046;38.950;2023-03-01T06:59:43;4.81;64.52
64638;HTU21D;51049;45.046;38.950;2023-03-01T07:03:00;4.82;64.56
64638;HTU21D;51049;45.046;38.950;2023-03-01T07:05:30;4.84;64.45
64638;HTU21D;51049;45.046;38.950;2023-03-01T07:15:08;4.93;64.48
64638;HTU21D;51049;45.046;38.950;2023-03-01T07:26:07;5.13;64.54
64638;HTU21D;51049;45.046;38.950;2023-03-01T07:29:04;5.24;64.43
64638;HTU21D;51049;45.046;38.950;2023-03-01T07:31:37;5.32;64.34
64638;HTU21D;51049;45.046;38.950;2023-03-01T07:37:40;5.41;64.31
64638;HTU21D;51049;45.046;38.950;2023-03-01T07:43:14;5.56;64.36
64638;HTU21D;51049;45.046;38.950;2023-03-01T07:46:32;5.64;64.16
64638;HTU21D;51049;45.046;38.950;2023-03-01T07:49:48;5.67;64.15
64638;HTU21D;51049;45.046;38.950;2023-03-01T07:56:14;5.68;64.10
64638;HTU21D;51049;45.046;38.950;2023-03-01T07:59:27;5.72;64.14
64638;HTU21D;51049;45.046;38.950;2023-03-01T08:02:05;5.79;64.21
64638;HTU21D;51049;45.046;38.950;2023-03-01T08:04:42;5.89;64.21
64638;HTU21D;51049;45.046;38.950;2023-03-01T08:07:19;6.01;64.21
64638;HTU21D;51049;45.046;38.950;2023-03-01T08:09:46;6.20;64.09
64638;HTU21D;51049;45.046;38.950;2023-03-01T08:12:12;6.25;63.85
64638;HTU21D;51049;45.046;38.950;2023-03-01T08:14:46;6.24;63.84
64638;HTU21D;51049;45.046;38.950;2023-03-01T08:17:16;6.31;63.93
64638;HTU21D;51049;45.046;38.950;2023-03-01T08:19:47;6.41;63.84
64638;HTU21D;51049;45.046;38.950;2023-03-01T08:22:19;6.43;63.78
64638;HTU21D;51049;45.046;38.950;2023-03-01T08:24:48;6.45;63.76
64638;HTU21D;51049;45.046;38.950;2023-03-01T08:27:16;6.43;63.68
64638;HTU21D;51049;45.046;38.950;2023-03-01T08:33:40;6.43;63.79
64638;HTU21D;51049;45.046;38.950;2023-03-01T08:36:59;6.46;63.73
64638;HTU21D;51049;45.046;38.950;2023-03-01T08:43:58;6.81;63.37
64638;HTU21D;51049;45.046;38.950;2023-03-01T08:46:29;6.86;63.26
64638;HTU21D;51049;45.046;38.950;2023-03-01T08:49:08;6.89;63.17
64638;HTU21D;51049;45.046;38.950;2023-03-01T08:51:43;6.90;63.07
64638;HTU21D;51049;45.046;38.950;2023-03-01T08:54:37;6.88;62.98
64638;HTU21D;51049;45.046;38.950;2023-03-01T08:57:14;6.78;63.08
64638;HTU21D;51049;45.046;38.950;2023-03-01T08:59:43;6.70;63.18
64638;HTU21D;51049;45.046;38.950;2023-03-01T09:02:17;6.70;63.20
64638;HTU21D;51049;45.046;38.950;2023-03-01T09:08:05;6.72;63.09
64638;HTU21D;51049;45.046;38.950;2023-03-01T09:11:05;6.69;62.89
64638;HTU21D;51049;45.046;38.950;2023-03-01T09:13:35;6.66;62.81
64638;HTU21D;51049;45.046;38.950;2023-03-01T09:16:11;6.63;62.81
64638;HTU21D;51049;45.046;38.950;2023-03-01T09:18:40;6.61;62.79
64638;HTU21D;51049;45.046;38.950;2023-03-01T09:21:12;6.63;62.83
64638;HTU21D;51049;45.046;38.950;2023-03-01T09:23:44;6.69;62.91
64638;HTU21D;51049;45.046;38.950;2023-03-01T09:26:13;6.82;62.81
64638;HTU21D;51049;45.046;38.950;2023-03-01T09:28:55;6.93;62.68
64638;HTU21D;51049;45.046;38.950;2023-03-01T09:31:28;6.95;62.44
64638;HTU21D;51049;45.046;38.950;2023-03-01T09:34:43;6.97;62.39
64638;HTU21D;51049;45.046;38.950;2023-03-01T09:47:26;7.41;62.21
64638;HTU21D;51049;45.046;38.950;2023-03-01T09:53:36;7.53;61.97
64638;HTU21D;51049;45.046;38.950;2023-03-01T10:04:55;7.31;61.60
64638;HTU21D;51049;45.046;38.950;2023-03-01T10:10:44;7.23;61.73
64638;HTU21D;51049;45.046;38.950;2023-03-01T10:13:41;7.22;61.61
64638;HTU21D;51049;45.046;38.950;2023-03-01T10:19:43;7.19;61.70
64638;HTU21D;51049;45.046;38.950;2023-03-01T10:23:01;7.32;61.72
64638;HTU21D;51049;45.046;38.950;2023-03-01T10:30:13;7.68;61.33
64638;HTU21D;51049;45.046;38.950;2023-03-01T10:33:25;7.74;61.24
64638;HTU21D;51049;45.046;38.950;2023-03-01T10:36:06;7.69;61.09
64638;HTU21D;51049;45.046;38.950;2023-03-01T10:39:14;7.78;61.44
64638;HTU21D;51049;45.046;38.950;2023-03-01T10:42:02;8.04;61.26
64638;HTU21D;51049;45.046;38.950;2023-03-01T10:44:48;8.20;61.07
64638;HTU21D;51049;45.046;38.950;2023-03-01T10:47:37;8.27;60.88
64638;HTU21D;51049;45.046;38.950;2023-03-01T10:50:23;8.32;60.87
64638;HTU21D;51049;45.046;38.950;2023-03-01T10:53:25;8.44;60.78
64638;HTU21D;51049;45.046;38.950;2023-03-01T10:56:12;8.59;60.76
64638;HTU21D;51049;45.046;38.950;2023-03-01T10:59:02;8.67;60.55
64638;HTU21D;51049;45.046;38.950;2023-03-01T11:04:31;8.88;60.11
64638;HTU21D;51049;45.046;38.950;2023-03-01T11:07:07;8.92;59.99
64638;HTU21D;51049;45.046;38.950;2023-03-01T11:12:29;8.93;60.06
64638;HTU21D;51049;45.046;38.950;2023-03-01T11:15:02;8.92;59.97
64638;HTU21D;51049;45.046;38.950;2023-03-01T11:17:30;8.87;59.76
64638;HTU21D;51049;45.046;38.950;2023-03-01T11:21:04;8.77;59.83
64638;HTU21D;51049;45.046;38.950;2023-03-01T11:23:41;8.66;59.75
64638;HTU21D;51049;45.046;38.950;2023-03-01T11:50:02;9.05;58.69
64638;HTU21D;51049;45.046;38.950;2023-03-01T12:13:40;9.98;57.06
64638;HTU21D;51049;45.046;38.950;2023-03-01T12:34:51;9.75;55.74
64638;HTU21D;51049;45.046;38.950;2023-03-01T12:46:40;9.84;55.60
64638;HTU21D;51049;45.046;38.950;2023-03-01T12:49:21;10.25;54.65
64638;HTU21D;51049;45.046;38.950;2023-03-01T13:04:12;9.40;54.46
64638;HTU21D;51049;45.046;38.950;2023-03-01T13:07:17;9.15;54.77
64638;HTU21D;51049;45.046;38.950;2023-03-01T13:13:10;10.01;53.72
64638;HTU21D;51049;45.046;38.950;2023-03-01T13:15:38;10.44;53.52
64638;HTU21D;51049;45.046;38.950;2023-03-01T13:18:29;10.89;52.30
64638;HTU21D;51049;45.046;38.950;2023-03-01T13:21:05;11.29;52.20
64638;HTU21D;51049;45.046;38.950;2023-03-01T13:23:43;11.40;51.91
64638;HTU21D;51049;45.046;38.950;2023-03-01T13:26:17;11.30;52.00
64638;HTU21D;51049;45.046;38.950;2023-03-01T13:28:55;10.95;51.54
64638;HTU21D;51049;45.046;38.950;2023-03-01T13:34:41;10.77;51.65
64638;HTU21D;51049;45.046;38.950;2023-03-01T13:37:33;10.34;51.66
64638;HTU21D;51049;45.046;38.950;2023-03-01T13:43:46;9.69;52.59
64638;HTU21D;51049;45.046;38.950;2023-03-01T13:53:49;10.81;50.98
64638;HTU21D;51049;45.046;38.950;2023-03-01T13:57:12;10.92;50.45
64638;HTU21D;51049;45.046;38.950;2023-03-01T14:03:23;11.51;49.97
64638;HTU21D;51049;45.046;38.950;2023-03-01T14:06:20;11.28;49.22
64638;HTU21D;51049;45.046;38.950;2023-03-01T14:09:52;10.62;50.37
64638;HTU21D;51049;45.046;38.950;2023-03-01T14:19:39;9.19;50.66
64638;HTU21D;51049;45.046;38.950;2023-03-01T14:22:29;8.74;51.27
64638;HTU21D;51049;45.046;38.950;2023-03-01T14:25:05;8.33;51.54
64638;HTU21D;51049;45.046;38.950;2023-03-01T14:30:50;7.61;51.85
64638;HTU21D;51049;45.046;38.950;2023-03-01T14:33:37;7.54;51.85
64638;HTU21D;51049;45.046;38.950;2023-03-01T14:36:26;7.59;51.63
64638;HTU21D;51049;45.046;38.950;2023-03-01T14:38:53;7.44;51.62
64638;HTU21D;51049;45.046;38.950;2023-03-01T14:41:28;7.22;51.64
64638;HTU21D;51049;45.046;38.950;2023-03-01T14:44:05;7.00;51.92
64638;HTU21D;51049;45.046;38.950;2023-03-01T14:46:41;6.81;52.13
64638;HTU21D;51049;45.046;38.950;2023-03-01T14:49:23;6.63;52.26
64638;HTU21D;51049;45.046;38.950;2023-03-01T14:51:57;6.49;52.38
64638;HTU21D;51049;45.046;38.950;2023-03-01T14:54:43;6.35;52.46
64638;HTU21D;51049;45.046;38.950;2023-03-01T14:57:19;6.21;52.47
64638;HTU21D;51049;45.046;38.950;2023-03-01T14:59:57;6.10;52.56
64638;HTU21D;51049;45.046;38.950;2023-03-01T15:03:06;5.98;52.59
64638;HTU21D;51049;45.046;38.950;2023-03-01T15:05:42;5.87;52.62
64638;HTU21D;51049;45.046;38.950;2023-03-01T15:08:19;5.79;52.69
64638;HTU21D;51049;45.046;38.950;2023-03-01T15:11:24;5.68;52.75
64638;HTU21D;51049;45.046;38.950;2023-03-01T15:13:55;5.61;52.85
64638;HTU21D;51049;45.046;38.950;2023-03-01T15:16:48;5.53;52.91
64638;HTU21D;51049;45.046;38.950;2023-03-01T15:19:18;5.46;52.95
64638;HTU21D;51049;45.046;38.950;2023-03-01T15:21:53;5.37;53.01
64638;HTU21D;51049;45.046;38.950;2023-03-01T15:27:31;5.22;53.07
64638;HTU21D;51049;45.046;38.950;2023-03-01T15:33:37;5.06;53.21
64638;HTU21D;51049;45.046;38.950;2023-03-01T15:45:19;4.77;53.43
64638;HTU21D;51049;45.046;38.950;2023-03-01T15:48:47;4.68;53.49
64638;HTU21D;51049;45.046;38.950;2023-03-01T15:54:38;4.57;53.60
64638;HTU21D;51049;45.046;38.950;2023-03-01T15:57:13;4.50;53.67
64638;HTU21D;51049;45.046;38.950;2023-03-01T15:59:42;4.46;53.72
64638;HTU21D;51049;45.046;38.950;2023-03-01T16:02:13;4.43;53.78
64638;HTU21D;51049;45.046;38.950;2023-03-01T16:04:45;4.37;53.83
64638;HTU21D;51049;45.046;38.950;2023-03-01T16:07:26;4.33;53.89
64638;HTU21D;51049;45.046;38.950;2023-03-01T16:09:56;4.29;53.94
64638;HTU21D;51049;45.046;38.950;2023-03-01T16:12:25;4.26;53.98
64638;HTU21D;51049;45.046;38.950;2023-03-01T16:14:51;4.22;54.04
64638;HTU21D;51049;45.046;38.950;2023-03-01T16:17:19;4.19;54.08
64638;HTU21D;51049;45.046;38.950;2023-03-01T16:19:45;4.17;54.11
64638;HTU21D;51049;45.046;38.950;2023-03-01T16:22:11;4.14;54.16
64638;HTU21D;51049;45.046;38.950;2023-03-01T16:24:46;4.09;54.19
64638;HTU21D;51049;45.046;38.950;2023-03-01T16:27:23;4.06;54.22
64638;HTU21D;51049;45.046;38.950;2023-03-01T16:33:11;3.95;54.33
64638;HTU21D;51049;45.046;38.950;2023-03-01T16:35:43;3.91;54.36
64638;HTU21D;51049;45.046;38.950;2023-03-01T16:38:36;3.87;54.40
64638;HTU21D;51049;45.046;38.950;2023-03-01T16:41:24;3.82;54.43
64638;HTU21D;51049;45.046;38.950;2023-03-01T16:44:00;3.77;54.49
64638;HTU21D;51049;45.046;38.950;2023-03-01T16:46:54;3.73;54.52
64638;HTU21D;51049;45.046;38.950;2023-03-01T16:49:37;3.69;54.56
64638;HTU21D;51049;45.046;38.950;2023-03-01T16:52:21;3.63;54.62
64638;HTU21D;51049;45.046;38.950;2023-03-01T16:58:20;3.50;54.70
64638;HTU21D;51049;45.046;38.950;2023-03-01T17:01:11;3.44;54.78
64638;HTU21D;51049;45.046;38.950;2023-03-01T17:03:53;3.38;54.81
64638;HTU21D;51049;45.046;38.950;2023-03-01T17:06:42;3.30;54.86
64638;HTU21D;51049;45.046;38.950;2023-03-01T17:09:13;3.23;54.93
64638;HTU21D;51049;45.046;38.950;2023-03-01T17:11:49;3.16;54.99
64638;HTU21D;51049;45.046;38.950;2023-03-01T17:14:22;3.12;55.04
64638;HTU21D;51049;45.046;38.950;2023-03-01T17:17:48;3.02;55.13
64638;HTU21D;51049;45.046;38.950;2023-03-01T17:21:11;2.91;55.17
64638;HTU21D;51049;45.046;38.950;2023-03-01T17:24:02;2.83;55.23
64638;HTU21D;51049;45.046;38.950;2023-03-01T17:26:40;2.78;55.30
64638;HTU21D;51049;45.046;38.950;2023-03-01T17:29:32;2.70;55.36
64638;HTU21D;51049;45.046;38.950;2023-03-01T17:32:40;2.61;55.43
64638;HTU21D;51049;45.046;38.950;2023-03-01T17:35:52;2.56;55.49
64638;HTU21D;51049;45.046;38.950;2023-03-01T17:38:28;2.51;55.52
64638;HTU21D;51049;45.046;38.950;2023-03-01T17:41:17;2.46;55.63
64638;HTU21D;51049;45.046;38.950;2023-03-01T17:43:53;2.42;55.65
64638;HTU21D;51049;45.046;38.950;2023-03-01T17:49:33;2.35;55.69
64638;HTU21D;51049;45.046;38.950;2023-03-01T17:52:25;2.32;55.78
64638;HTU21D;51049;45.046;38.950;2023-03-01T17:55:10;2.32;55.80
64638;HTU21D;51049;45.046;38.950;2023-03-01T17:57:45;2.34;55.81
64638;HTU21D;51049;45.046;38.950;2023-03-01T18:00:38;2.34;55.77
64638;HTU21D;51049;45.046;38.950;2023-03-01T18:03:23;2.32;55.78
64638;HTU21D;51049;45.046;38.950;2023-03-01T18:06:22;2.30;55.81
64638;HTU21D;51049;45.046;38.950;2023-03-01T18:09:10;2.27;55.81
64638;HTU21D;51049;45.046;38.950;2023-03-01T18:15:00;2.21;55.89
64638;HTU21D;51049;45.046;38.950;2023-03-01T18:17:28;2.16;55.94
64638;HTU21D;51049;45.046;38.950;2023-03-01T18:19:58;2.13;56.00
64638;HTU21D;51049;45.046;38.950;2023-03-01T18:22:35;2.09;56.10
64638;HTU21D;51049;45.046;38.950;2023-03-01T18:25:07;2.06;56.16
64638;HTU21D;51049;45.046;38.950;2023-03-01T18:27:59;2.02;56.23
64638;HTU21D;51049;45.046;38.950;2023-03-01T18:30:44;1.97;56.21
64638;HTU21D;51049;45.046;38.950;2023-03-01T18:33:14;1.91;56.26
64638;HTU21D;51049;45.046;38.950;2023-03-01T18:35:55;1.85;56.35
64638;HTU21D;51049;45.046;38.950;2023-03-01T18:41:53;1.71;56.45
64638;HTU21D;51049;45.046;38.950;2023-03-01T18:44:19;1.68;56.52
64638;HTU21D;51049;45.046;38.950;2023-03-01T18:47:17;1.63;56.58
64638;HTU21D;51049;45.046;38.950;2023-03-01T18:58:11;1.49;56.65
64638;HTU21D;51049;45.046;38.950;2023-03-01T19:04:14;1.40;56.74
64638;HTU21D;51049;45.046;38.950;2023-03-01T19:07:20;1.35;56.78
64638;HTU21D;51049;45.046;38.950;2023-03-01T19:09:49;1.33;56.86
64638;HTU21D;51049;45.046;38.950;2023-03-01T19:12:17;1.29;56.90
64638;HTU21D;51049;45.046;38.950;2023-03-01T19:14:45;1.28;56.92
64638;HTU21D;51049;45.046;38.950;2023-03-01T19:32:39;1.02;57.06
64638;HTU21D;51049;45.046;38.950;2023-03-01T20:00:53;0.90;57.35
64638;HTU21D;51049;45.046;38.950;2023-03-01T20:04:19;0.93;57.35
64638;HTU21D;51049;45.046;38.950;2023-03-01T20:10:35;1.01;57.32
64638;HTU21D;51049;45.046;38.950;2023-03-01T20:20:34;1.21;57.42
64638;HTU21D;51049;45.046;38.950;2023-03-01T20:24:04;1.38;57.42
64638;HTU21D;51049;45.046;38.950;2023-03-01T20:26:50;1.50;57.44
64638;HTU21D;51049;45.046;38.950;2023-03-01T20:30:19;1.64;57.39
64638;HTU21D;51049;45.046;38.950;2023-03-01T20:33:34;1.72;57.32
64638;HTU21D;51049;45.046;38.950;2023-03-01T20:40:13;1.84;57.46
64638;HTU21D;51049;45.046;38.950;2023-03-01T21:01:46;2.05;57.61
64638;HTU21D;51049;45.046;38.950;2023-03-01T21:07:30;2.07;57.69
64638;HTU21D;51049;45.046;38.950;2023-03-01T21:09:59;2.07;57.68
64638;HTU21D;51049;45.046;38.950;2023-03-01T21:12:28;2.09;57.76
64638;HTU21D;51049;45.046;38.950;2023-03-01T21:14:55;2.08;57.80
64638;HTU21D;51049;45.046;38.950;2023-03-01T21:17:32;2.07;57.87
64638;HTU21D;51049;45.046;38.950;2023-03-01T21:20:06;2.05;57.86
64638;HTU21D;51049;45.046;38.950;2023-03-01T21:22:36;2.02;57.85
64638;HTU21D;51049;45.046;38.950;2023-03-01T21:25:08;1.97;57.92
64638;HTU21D;51049;45.046;38.950;2023-03-01T21:27:40;1.93;57.98
64638;HTU21D;51049;45.046;38.950;2023-03-01T21:30:08;1.92;58.03
64638;HTU21D;51049;45.046;38.950;2023-03-01T21:32:34;1.91;58.04
64638;HTU21D;51049;45.046;38.950;2023-03-01T21:35:39;1.87;58.12
64638;HTU21D;51049;45.046;38.950;2023-03-01T21:38:18;1.86;58.09
64638;HTU21D;51049;45.046;38.950;2023-03-01T21:40:50;1.84;58.10
64638;HTU21D;51049;45.046;38.950;2023-03-01T21:43:30;1.82;58.10
64638;HTU21D;51049;45.046;38.950;2023-03-01T21:46:07;1.78;58.11
64638;HTU21D;51049;45.046;38.950;2023-03-01T21:48:51;1.77;58.13
64638;HTU21D;51049;45.046;38.950;2023-03-01T21:51:32;1.71;58.19
64638;HTU21D;51049;45.046;38.950;2023-03-01T21:54:20;1.72;58.22
64638;HTU21D;51049;45.046;38.950;2023-03-01T21:56:51;1.72;58.18
64638;HTU21D;51049;45.046;38.950;2023-03-01T21:59:30;1.76;58.24
64638;HTU21D;51049;45.046;38.950;2023-03-01T22:02:05;1.83;58.23
64638;HTU21D;51049;45.046;38.950;2023-03-01T22:04:43;1.88;58.19
64638;HTU21D;51049;45.046;38.950;2023-03-01T22:07:23;1.90;58.21
64638;HTU21D;51049;45.046;38.950;2023-03-01T22:10:02;1.98;58.26
64638;HTU21D;51049;45.046;38.950;2023-03-01T22:15:03;2.05;58.28
64638;HTU21D;51049;45.046;38.950;2023-03-01T22:20:39;2.11;58.30
64638;HTU21D;51049;45.046;38.950;2023-03-01T22:23:11;2.13;58.28
64638;HTU21D;51049;45.046;38.950;2023-03-01T22:26:00;2.13;58.29